sensor_id;sensor_type;location;lat;lon;timestamp;P1;durP1;ratioP1;P2;durP2;ratioP2
37847;SDS011;23688;33.130;-117.188;2024-02-23T00:01:58;8.25;;;2.45;;
37847;SDS011;23688;33.130;-117.188;2024-02-23T00:04:25;7.90;;;1.85;;
37847;SDS011;23688;33.130;-117.188;2024-02-23T00:06:51;7.63;;;2.10;;
37847;SDS011;23688;33.130;-117.188;2024-02-23T00:09:18;14.80;;;2.10;;
37847;SDS011;23688;33.130;-117.188;2024-02-23T00:11:44;12.07;;;2.60;;
37847;SDS011;23688;33.130;-117.188;2024-02-23T00:14:11;9.23;;;2.25;;
37847;SDS011;23688;33.130;-117.188;2024-02-23T00:16:38;14.32;;;2.35;;
37847;SDS011;23688;33.130;-117.188;2024-02-23T00:19:07;10.23;;;2.65;;
37847;SDS011;23688;33.130;-117.188;2024-02-23T00:21:37;5.10;;;1.60;;
37847;SDS011;23688;33.130;-117.188;2024-02-23T00:24:07;5.00;;;1.98;;
37847;SDS011;23688;33.130;-117.188;2024-02-23T00:26:34;11.15;;;2.45;;
37847;SDS011;23688;33.130;-117.188;2024-02-23T00:29:02;6.70;;;1.77;;
37847;SDS011;23688;33.130;-117.188;2024-02-23T00:31:28;5.50;;;1.50;;
37847;SDS011;23688;33.130;-117.188;2024-02-23T00:33:57;4.43;;;1.42;;
37847;SDS011;23688;33.130;-117.188;2024-02-23T00:36:24;4.93;;;1.55;;
37847;SDS011;23688;33.130;-117.188;2024-02-23T00:38:52;7.15;;;2.17;;
37847;SDS011;23688;33.130;-117.188;2024-02-23T00:41:18;7.57;;;2.22;;
37847;SDS011;23688;33.130;-117.188;2024-02-23T00:43:44;6.43;;;1.55;;
37847;SDS011;23688;33.130;-117.188;2024-02-23T00:46:12;4.65;;;1.48;;
37847;SDS011;23688;33.130;-117.188;2024-02-23T00:48:39;5.15;;;1.65;;
37847;SDS011;23688;33.130;-117.188;2024-02-23T00:51:06;7.18;;;1.48;;
37847;SDS011;23688;33.130;-117.188;2024-02-23T00:53:34;6.22;;;1.55;;
37847;SDS011;23688;33.130;-117.188;2024-02-23T00:56:00;7.20;;;1.17;;
37847;SDS011;23688;33.130;-117.188;2024-02-23T00:58:27;5.85;;;1.90;;
37847;SDS011;23688;33.130;-117.188;2024-02-23T01:00:53;7.18;;;1.50;;
37847;SDS011;23688;33.130;-117.188;2024-02-23T01:03:21;7.88;;;1.60;;
37847;SDS011;23688;33.130;-117.188;2024-02-23T01:05:47;5.93;;;1.45;;
37847;SDS011;23688;33.130;-117.188;2024-02-23T01:08:14;4.97;;;1.67;;
37847;SDS011;23688;33.130;-117.188;2024-02-23T01:10:40;6.10;;;1.23;;
37847;SDS011;23688;33.130;-117.188;2024-02-23T01:13:07;4.35;;;0.93;;
37847;SDS011;23688;33.130;-117.188;2024-02-23T01:15:33;6.05;;;1.25;;
37847;SDS011;23688;33.130;-117.188;2024-02-23T01:17:59;5.50;;;1.42;;
37847;SDS011;23688;33.130;-117.188;2024-02-23T01:20:28;7.60;;;1.88;;
37847;SDS011;23688;33.130;-117.188;2024-02-23T01:22:55;9.73;;;2.15;;
37847;SDS011;23688;33.130;-117.188;2024-02-23T01:25:21;8.40;;;2.00;;
37847;SDS011;23688;33.130;-117.188;2024-02-23T01:27:47;8.07;;;1.80;;
37847;SDS011;23688;33.130;-117.188;2024-02-23T01:30:14;10.35;;;1.80;;
37847;SDS011;23688;33.130;-117.188;2024-02-23T01:32:40;6.72;;;1.50;;
37847;SDS011;23688;33.130;-117.188;2024-02-23T01:35:07;5.88;;;1.40;;
37847;SDS011;23688;33.130;-117.188;2024-02-23T01:37:34;12.68;;;2.00;;
37847;SDS011;23688;33.130;-117.188;2024-02-23T01:40:03;9.95;;;1.75;;
37847;SDS011;23688;33.130;-117.188;2024-02-23T01:42:33;5.25;;;1.27;;
37847;SDS011;23688;33.130;-117.188;2024-02-23T01:44:59;5.18;;;1.52;;
37847;SDS011;23688;33.130;-117.188;2024-02-23T01:47:27;9.90;;;1.75;;
37847;SDS011;23688;33.130;-117.188;2024-02-23T01:49:54;6.70;;;1.50;;
37847;SDS011;23688;33.130;-117.188;2024-02-23T01:52:23;8.18;;;1.45;;
37847;SDS011;23688;33.130;-117.188;2024-02-23T01:54:49;10.38;;;2.47;;
37847;SDS011;23688;33.130;-117.188;2024-02-23T01:57:17;9.32;;;1.67;;
37847;SDS011;23688;33.130;-117.188;2024-02-23T01:59:43;8.10;;;1.20;;
37847;SDS011;23688;33.130;-117.188;2024-02-23T02:02:10;4.72;;;1.48;;
37847;SDS011;23688;33.130;-117.188;2024-02-23T02:04:39;34.72;;;17.50;;
37847;SDS011;23688;33.130;-117.188;2024-02-23T02:07:05;19.80;;;9.68;;
37847;SDS011;23688;33.130;-117.188;2024-02-23T02:09:31;10.32;;;3.40;;
37847;SDS011;23688;33.130;-117.188;2024-02-23T02:11:58;8.70;;;2.92;;
37847;SDS011;23688;33.130;-117.188;2024-02-23T02:14:24;7.50;;;2.40;;
37847;SDS011;23688;33.130;-117.188;2024-02-23T02:16:51;9.43;;;2.22;;
37847;SDS011;23688;33.130;-117.188;2024-02-23T02:19:17;16.20;;;6.47;;
37847;SDS011;23688;33.130;-117.188;2024-02-23T02:21:43;9.50;;;2.70;;
37847;SDS011;23688;33.130;-117.188;2024-02-23T02:24:10;9.60;;;1.63;;
37847;SDS011;23688;33.130;-117.188;2024-02-23T02:26:37;4.38;;;1.85;;
37847;SDS011;23688;33.130;-117.188;2024-02-23T02:29:03;4.63;;;1.90;;
37847;SDS011;23688;33.130;-117.188;2024-02-23T02:31:29;7.25;;;2.20;;
37847;SDS011;23688;33.130;-117.188;2024-02-23T02:34:02;3.58;;;1.70;;
37847;SDS011;23688;33.130;-117.188;2024-02-23T02:36:29;7.60;;;1.88;;
37847;SDS011;23688;33.130;-117.188;2024-02-23T02:38:56;6.70;;;1.30;;
37847;SDS011;23688;33.130;-117.188;2024-02-23T02:41:23;8.70;;;1.98;;
37847;SDS011;23688;33.130;-117.188;2024-02-23T02:43:54;7.93;;;1.67;;
37847;SDS011;23688;33.130;-117.188;2024-02-23T02:46:20;12.02;;;1.98;;
37847;SDS011;23688;33.130;-117.188;2024-02-23T02:48:46;6.80;;;1.70;;
37847;SDS011;23688;33.130;-117.188;2024-02-23T02:51:13;9.95;;;2.80;;
37847;SDS011;23688;33.130;-117.188;2024-02-23T02:53:40;4.43;;;1.80;;
37847;SDS011;23688;33.130;-117.188;2024-02-23T02:56:07;6.03;;;1.98;;
37847;SDS011;23688;33.130;-117.188;2024-02-23T02:58:33;10.13;;;2.13;;
37847;SDS011;23688;33.130;-117.188;2024-02-23T03:00:59;7.47;;;2.20;;
37847;SDS011;23688;33.130;-117.188;2024-02-23T03:03:25;7.85;;;2.28;;
37847;SDS011;23688;33.130;-117.188;2024-02-23T03:05:52;9.15;;;2.10;;
37847;SDS011;23688;33.130;-117.188;2024-02-23T03:08:18;10.85;;;2.42;;
37847;SDS011;23688;33.130;-117.188;2024-02-23T03:10:45;5.45;;;2.30;;
37847;SDS011;23688;33.130;-117.188;2024-02-23T03:13:11;13.93;;;3.13;;
37847;SDS011;23688;33.130;-117.188;2024-02-23T03:15:37;13.75;;;2.65;;
37847;SDS011;23688;33.130;-117.188;2024-02-23T03:18:04;11.00;;;2.40;;
37847;SDS011;23688;33.130;-117.188;2024-02-23T03:20:30;13.88;;;3.25;;
37847;SDS011;23688;33.130;-117.188;2024-02-23T03:22:56;6.85;;;2.50;;
37847;SDS011;23688;33.130;-117.188;2024-02-23T03:25:24;5.57;;;2.70;;
37847;SDS011;23688;33.130;-117.188;2024-02-23T03:27:50;5.80;;;2.47;;
37847;SDS011;23688;33.130;-117.188;2024-02-23T03:30:16;10.23;;;2.42;;
37847;SDS011;23688;33.130;-117.188;2024-02-23T03:32:42;13.02;;;2.95;;
37847;SDS011;23688;33.130;-117.188;2024-02-23T03:35:09;17.95;;;3.58;;
37847;SDS011;23688;33.130;-117.188;2024-02-23T03:37:35;8.13;;;2.65;;
37847;SDS011;23688;33.130;-117.188;2024-02-23T03:40:02;8.43;;;2.85;;
37847;SDS011;23688;33.130;-117.188;2024-02-23T03:42:30;12.10;;;2.53;;
37847;SDS011;23688;33.130;-117.188;2024-02-23T03:44:56;9.48;;;2.72;;
37847;SDS011;23688;33.130;-117.188;2024-02-23T03:47:22;19.30;;;3.80;;
37847;SDS011;23688;33.130;-117.188;2024-02-23T03:49:49;11.10;;;2.47;;
37847;SDS011;23688;33.130;-117.188;2024-02-23T03:52:16;14.18;;;3.13;;
37847;SDS011;23688;33.130;-117.188;2024-02-23T03:54:43;14.23;;;2.70;;
37847;SDS011;23688;33.130;-117.188;2024-02-23T03:57:09;6.95;;;2.63;;
37847;SDS011;23688;33.130;-117.188;2024-02-23T03:59:36;7.72;;;2.60;;
37847;SDS011;23688;33.130;-117.188;2024-02-23T04:02:04;9.98;;;2.72;;
37847;SDS011;23688;33.130;-117.188;2024-02-23T04:04:31;11.38;;;3.17;;
37847;SDS011;23688;33.130;-117.188;2024-02-23T04:06:57;11.32;;;3.08;;
37847;SDS011;23688;33.130;-117.188;2024-02-23T04:09:23;12.25;;;3.08;;
37847;SDS011;23688;33.130;-117.188;2024-02-23T04:11:50;9.48;;;3.35;;
37847;SDS011;23688;33.130;-117.188;2024-02-23T04:14:18;10.45;;;3.17;;
37847;SDS011;23688;33.130;-117.188;2024-02-23T04:16:44;17.35;;;3.58;;
37847;SDS011;23688;33.130;-117.188;2024-02-23T04:19:11;16.83;;;3.30;;
37847;SDS011;23688;33.130;-117.188;2024-02-23T04:21:37;10.35;;;2.50;;
37847;SDS011;23688;33.130;-117.188;2024-02-23T04:24:03;9.60;;;3.30;;
37847;SDS011;23688;33.130;-117.188;2024-02-23T04:29:00;11.80;;;2.58;;
37847;SDS011;23688;33.130;-117.188;2024-02-23T04:31:27;13.02;;;3.08;;
37847;SDS011;23688;33.130;-117.188;2024-02-23T04:33:53;9.60;;;2.38;;
37847;SDS011;23688;33.130;-117.188;2024-02-23T04:36:19;9.25;;;2.72;;
37847;SDS011;23688;33.130;-117.188;2024-02-23T04:38:49;14.43;;;2.90;;
37847;SDS011;23688;33.130;-117.188;2024-02-23T04:41:18;10.75;;;2.67;;
37847;SDS011;23688;33.130;-117.188;2024-02-23T04:43:46;8.65;;;2.80;;
37847;SDS011;23688;33.130;-117.188;2024-02-23T04:46:15;12.50;;;2.80;;
37847;SDS011;23688;33.130;-117.188;2024-02-23T04:48:41;14.98;;;4.03;;
37847;SDS011;23688;33.130;-117.188;2024-02-23T04:51:08;10.45;;;2.75;;
37847;SDS011;23688;33.130;-117.188;2024-02-23T04:53:37;9.68;;;2.58;;
37847;SDS011;23688;33.130;-117.188;2024-02-23T04:56:06;11.90;;;2.70;;
37847;SDS011;23688;33.130;-117.188;2024-02-23T04:58:33;14.20;;;3.30;;
37847;SDS011;23688;33.130;-117.188;2024-02-23T05:00:59;12.35;;;3.03;;
37847;SDS011;23688;33.130;-117.188;2024-02-23T05:03:26;10.40;;;3.15;;
37847;SDS011;23688;33.130;-117.188;2024-02-23T05:05:52;20.95;;;3.25;;
37847;SDS011;23688;33.130;-117.188;2024-02-23T05:08:21;12.02;;;3.08;;
37847;SDS011;23688;33.130;-117.188;2024-02-23T05:10:50;20.45;;;5.18;;
37847;SDS011;23688;33.130;-117.188;2024-02-23T05:13:16;10.70;;;4.85;;
37847;SDS011;23688;33.130;-117.188;2024-02-23T05:15:43;12.73;;;4.47;;
37847;SDS011;23688;33.130;-117.188;2024-02-23T05:18:09;24.17;;;6.25;;
37847;SDS011;23688;33.130;-117.188;2024-02-23T05:20:35;21.10;;;7.05;;
37847;SDS011;23688;33.130;-117.188;2024-02-23T05:23:02;15.73;;;7.22;;
37847;SDS011;23688;33.130;-117.188;2024-02-23T05:25:28;14.85;;;5.78;;
37847;SDS011;23688;33.130;-117.188;2024-02-23T05:27:54;18.27;;;5.88;;
37847;SDS011;23688;33.130;-117.188;2024-02-23T05:30:27;20.33;;;6.55;;
37847;SDS011;23688;33.130;-117.188;2024-02-23T05:35:24;18.42;;;7.25;;
37847;SDS011;23688;33.130;-117.188;2024-02-23T05:37:53;20.52;;;8.80;;
37847;SDS011;23688;33.130;-117.188;2024-02-23T05:40:20;22.25;;;8.00;;
37847;SDS011;23688;33.130;-117.188;2024-02-23T05:42:47;19.00;;;5.22;;
37847;SDS011;23688;33.130;-117.188;2024-02-23T05:45:13;11.65;;;4.72;;
37847;SDS011;23688;33.130;-117.188;2024-02-23T05:47:40;14.45;;;4.68;;
37847;SDS011;23688;33.130;-117.188;2024-02-23T05:50:09;22.38;;;7.25;;
37847;SDS011;23688;33.130;-117.188;2024-02-23T05:52:36;14.73;;;5.47;;
37847;SDS011;23688;33.130;-117.188;2024-02-23T05:55:07;9.75;;;4.72;;
37847;SDS011;23688;33.130;-117.188;2024-02-23T05:57:34;18.83;;;4.82;;
37847;SDS011;23688;33.130;-117.188;2024-02-23T06:00:00;17.35;;;4.65;;
37847;SDS011;23688;33.130;-117.188;2024-02-23T06:02:27;14.45;;;4.22;;
37847;SDS011;23688;33.130;-117.188;2024-02-23T06:04:53;9.23;;;4.53;;
37847;SDS011;23688;33.130;-117.188;2024-02-23T06:07:19;16.45;;;4.63;;
37847;SDS011;23688;33.130;-117.188;2024-02-23T06:09:52;13.23;;;4.22;;
37847;SDS011;23688;33.130;-117.188;2024-02-23T06:12:18;10.05;;;3.83;;
37847;SDS011;23688;33.130;-117.188;2024-02-23T06:14:44;19.88;;;3.55;;
37847;SDS011;23688;33.130;-117.188;2024-02-23T06:17:11;12.48;;;4.65;;
37847;SDS011;23688;33.130;-117.188;2024-02-23T06:19:37;11.95;;;3.92;;
37847;SDS011;23688;33.130;-117.188;2024-02-23T06:22:03;10.70;;;3.40;;
37847;SDS011;23688;33.130;-117.188;2024-02-23T06:24:30;13.75;;;3.95;;
37847;SDS011;23688;33.130;-117.188;2024-02-23T06:26:56;8.73;;;3.22;;
37847;SDS011;23688;33.130;-117.188;2024-02-23T06:29:23;15.00;;;4.22;;
37847;SDS011;23688;33.130;-117.188;2024-02-23T06:31:49;12.00;;;4.47;;
37847;SDS011;23688;33.130;-117.188;2024-02-23T06:34:16;9.55;;;3.80;;
37847;SDS011;23688;33.130;-117.188;2024-02-23T06:36:42;8.40;;;3.65;;
37847;SDS011;23688;33.130;-117.188;2024-02-23T06:39:08;13.45;;;5.50;;
37847;SDS011;23688;33.130;-117.188;2024-02-23T06:41:39;10.00;;;4.60;;
37847;SDS011;23688;33.130;-117.188;2024-02-23T06:44:05;13.88;;;4.10;;
37847;SDS011;23688;33.130;-117.188;2024-02-23T06:46:31;10.55;;;4.93;;
37847;SDS011;23688;33.130;-117.188;2024-02-23T06:48:58;18.83;;;5.35;;
37847;SDS011;23688;33.130;-117.188;2024-02-23T06:51:24;12.15;;;4.70;;
37847;SDS011;23688;33.130;-117.188;2024-02-23T06:53:50;15.50;;;4.75;;
37847;SDS011;23688;33.130;-117.188;2024-02-23T06:56:17;11.27;;;5.60;;
37847;SDS011;23688;33.130;-117.188;2024-02-23T06:58:43;14.40;;;5.60;;
37847;SDS011;23688;33.130;-117.188;2024-02-23T07:01:09;14.48;;;5.82;;
37847;SDS011;23688;33.130;-117.188;2024-02-23T07:03:38;19.08;;;6.03;;
37847;SDS011;23688;33.130;-117.188;2024-02-23T07:06:06;20.88;;;5.60;;
37847;SDS011;23688;33.130;-117.188;2024-02-23T07:08:34;24.63;;;6.50;;
37847;SDS011;23688;33.130;-117.188;2024-02-23T07:11:01;21.52;;;6.50;;
37847;SDS011;23688;33.130;-117.188;2024-02-23T07:13:29;15.50;;;5.85;;
37847;SDS011;23688;33.130;-117.188;2024-02-23T07:15:55;22.80;;;6.45;;
37847;SDS011;23688;33.130;-117.188;2024-02-23T07:18:22;12.02;;;5.35;;
37847;SDS011;23688;33.130;-117.188;2024-02-23T07:20:48;12.63;;;5.13;;
37847;SDS011;23688;33.130;-117.188;2024-02-23T07:23:15;18.13;;;7.68;;
37847;SDS011;23688;33.130;-117.188;2024-02-23T07:25:42;19.42;;;6.60;;
37847;SDS011;23688;33.130;-117.188;2024-02-23T07:28:08;8.95;;;5.70;;
37847;SDS011;23688;33.130;-117.188;2024-02-23T07:30:35;14.63;;;6.15;;
37847;SDS011;23688;33.130;-117.188;2024-02-23T07:33:03;14.88;;;6.20;;
37847;SDS011;23688;33.130;-117.188;2024-02-23T07:35:29;26.23;;;7.43;;
37847;SDS011;23688;33.130;-117.188;2024-02-23T07:37:55;17.75;;;6.78;;
37847;SDS011;23688;33.130;-117.188;2024-02-23T07:40:23;21.35;;;6.43;;
37847;SDS011;23688;33.130;-117.188;2024-02-23T07:42:49;12.48;;;6.28;;
37847;SDS011;23688;33.130;-117.188;2024-02-23T07:45:15;20.13;;;5.43;;
37847;SDS011;23688;33.130;-117.188;2024-02-23T07:47:42;19.73;;;5.47;;
37847;SDS011;23688;33.130;-117.188;2024-02-23T07:50:09;18.35;;;5.50;;
37847;SDS011;23688;33.130;-117.188;2024-02-23T07:52:36;17.38;;;6.30;;
37847;SDS011;23688;33.130;-117.188;2024-02-23T07:55:04;17.80;;;6.80;;
37847;SDS011;23688;33.130;-117.188;2024-02-23T07:57:30;24.42;;;8.27;;
37847;SDS011;23688;33.130;-117.188;2024-02-23T07:59:57;23.58;;;6.97;;
37847;SDS011;23688;33.130;-117.188;2024-02-23T08:02:23;23.55;;;7.57;;
37847;SDS011;23688;33.130;-117.188;2024-02-23T08:04:49;19.13;;;7.50;;
37847;SDS011;23688;33.130;-117.188;2024-02-23T08:07:17;14.98;;;6.32;;
37847;SDS011;23688;33.130;-117.188;2024-02-23T08:09:43;18.98;;;6.05;;
37847;SDS011;23688;33.130;-117.188;2024-02-23T08:12:10;16.45;;;6.25;;
37847;SDS011;23688;33.130;-117.188;2024-02-23T08:14:39;13.30;;;5.38;;
37847;SDS011;23688;33.130;-117.188;2024-02-23T08:17:05;19.92;;;4.93;;
37847;SDS011;23688;33.130;-117.188;2024-02-23T08:19:31;10.32;;;5.05;;
37847;SDS011;23688;33.130;-117.188;2024-02-23T08:21:57;16.35;;;5.00;;
37847;SDS011;23688;33.130;-117.188;2024-02-23T08:24:24;13.23;;;5.22;;
37847;SDS011;23688;33.130;-117.188;2024-02-23T08:26:51;15.02;;;4.68;;
37847;SDS011;23688;33.130;-117.188;2024-02-23T08:29:19;11.48;;;4.75;;
37847;SDS011;23688;33.130;-117.188;2024-02-23T08:31:45;10.85;;;3.83;;
37847;SDS011;23688;33.130;-117.188;2024-02-23T08:34:11;13.25;;;4.97;;
37847;SDS011;23688;33.130;-117.188;2024-02-23T08:36:38;12.70;;;4.93;;
37847;SDS011;23688;33.130;-117.188;2024-02-23T08:39:04;13.05;;;4.40;;
37847;SDS011;23688;33.130;-117.188;2024-02-23T08:41:31;15.23;;;5.10;;
37847;SDS011;23688;33.130;-117.188;2024-02-23T08:43:57;8.43;;;3.92;;
37847;SDS011;23688;33.130;-117.188;2024-02-23T08:46:23;12.98;;;3.97;;
37847;SDS011;23688;33.130;-117.188;2024-02-23T08:48:49;12.68;;;3.97;;
37847;SDS011;23688;33.130;-117.188;2024-02-23T08:51:16;13.60;;;4.30;;
37847;SDS011;23688;33.130;-117.188;2024-02-23T08:53:43;13.55;;;4.55;;
37847;SDS011;23688;33.130;-117.188;2024-02-23T08:56:10;12.30;;;4.22;;
37847;SDS011;23688;33.130;-117.188;2024-02-23T08:58:37;11.37;;;4.23;;
37847;SDS011;23688;33.130;-117.188;2024-02-23T09:01:04;8.35;;;4.57;;
37847;SDS011;23688;33.130;-117.188;2024-02-23T09:03:30;13.77;;;4.20;;
37847;SDS011;23688;33.130;-117.188;2024-02-23T09:05:57;14.75;;;3.97;;
37847;SDS011;23688;33.130;-117.188;2024-02-23T09:08:23;18.27;;;4.18;;
37847;SDS011;23688;33.130;-117.188;2024-02-23T09:10:49;16.63;;;4.43;;
37847;SDS011;23688;33.130;-117.188;2024-02-23T09:13:16;12.85;;;5.35;;
37847;SDS011;23688;33.130;-117.188;2024-02-23T09:15:42;18.38;;;6.32;;
37847;SDS011;23688;33.130;-117.188;2024-02-23T09:18:08;13.02;;;4.90;;
37847;SDS011;23688;33.130;-117.188;2024-02-23T09:20:35;11.85;;;4.90;;
37847;SDS011;23688;33.130;-117.188;2024-02-23T09:23:01;17.52;;;5.60;;
37847;SDS011;23688;33.130;-117.188;2024-02-23T09:27:57;8.90;;;2.78;;
37847;SDS011;23688;33.130;-117.188;2024-02-23T09:30:24;13.15;;;4.03;;
37847;SDS011;23688;33.130;-117.188;2024-02-23T09:32:50;7.07;;;3.63;;
37847;SDS011;23688;33.130;-117.188;2024-02-23T09:35:16;18.67;;;4.78;;
37847;SDS011;23688;33.130;-117.188;2024-02-23T09:37:42;10.23;;;3.50;;
37847;SDS011;23688;33.130;-117.188;2024-02-23T09:40:09;10.20;;;3.10;;
37847;SDS011;23688;33.130;-117.188;2024-02-23T09:42:36;8.93;;;3.35;;
37847;SDS011;23688;33.130;-117.188;2024-02-23T09:45:04;9.75;;;3.13;;
37847;SDS011;23688;33.130;-117.188;2024-02-23T09:47:31;9.10;;;3.47;;
37847;SDS011;23688;33.130;-117.188;2024-02-23T09:49:58;9.18;;;2.72;;
37847;SDS011;23688;33.130;-117.188;2024-02-23T09:52:29;5.35;;;2.83;;
37847;SDS011;23688;33.130;-117.188;2024-02-23T09:54:56;9.05;;;4.25;;
37847;SDS011;23688;33.130;-117.188;2024-02-23T09:57:23;9.27;;;3.30;;
37847;SDS011;23688;33.130;-117.188;2024-02-23T09:59:49;11.98;;;5.05;;
37847;SDS011;23688;33.130;-117.188;2024-02-23T10:02:17;10.65;;;3.92;;
37847;SDS011;23688;33.130;-117.188;2024-02-23T10:04:44;7.53;;;4.13;;
37847;SDS011;23688;33.130;-117.188;2024-02-23T10:07:10;13.32;;;4.90;;
37847;SDS011;23688;33.130;-117.188;2024-02-23T10:09:39;10.52;;;5.38;;
37847;SDS011;23688;33.130;-117.188;2024-02-23T10:12:06;16.35;;;6.03;;
37847;SDS011;23688;33.130;-117.188;2024-02-23T10:14:33;11.13;;;5.75;;
37847;SDS011;23688;33.130;-117.188;2024-02-23T10:16:59;9.40;;;5.45;;
37847;SDS011;23688;33.130;-117.188;2024-02-23T10:19:27;15.93;;;5.40;;
37847;SDS011;23688;33.130;-117.188;2024-02-23T10:21:55;14.50;;;4.97;;
37847;SDS011;23688;33.130;-117.188;2024-02-23T10:24:25;13.23;;;4.97;;
37847;SDS011;23688;33.130;-117.188;2024-02-23T10:26:52;13.77;;;5.75;;
37847;SDS011;23688;33.130;-117.188;2024-02-23T10:29:18;19.52;;;6.13;;
37847;SDS011;23688;33.130;-117.188;2024-02-23T10:31:46;19.75;;;5.97;;
37847;SDS011;23688;33.130;-117.188;2024-02-23T10:34:15;12.52;;;6.25;;
37847;SDS011;23688;33.130;-117.188;2024-02-23T10:36:45;15.82;;;5.80;;
37847;SDS011;23688;33.130;-117.188;2024-02-23T10:39:16;7.13;;;4.00;;
37847;SDS011;23688;33.130;-117.188;2024-02-23T10:41:51;18.63;;;4.32;;
37847;SDS011;23688;33.130;-117.188;2024-02-23T10:44:24;9.95;;;3.97;;
37847;SDS011;23688;33.130;-117.188;2024-02-23T10:46:52;9.00;;;4.57;;
37847;SDS011;23688;33.130;-117.188;2024-02-23T10:49:20;10.00;;;4.57;;
37847;SDS011;23688;33.130;-117.188;2024-02-23T10:51:52;9.73;;;3.88;;
37847;SDS011;23688;33.130;-117.188;2024-02-23T10:54:20;12.00;;;3.60;;
37847;SDS011;23688;33.130;-117.188;2024-02-23T10:56:47;6.93;;;3.08;;
37847;SDS011;23688;33.130;-117.188;2024-02-23T10:59:15;11.10;;;4.28;;
37847;SDS011;23688;33.130;-117.188;2024-02-23T11:01:53;18.58;;;5.32;;
37847;SDS011;23688;33.130;-117.188;2024-02-23T11:04:26;8.77;;;4.55;;
37847;SDS011;23688;33.130;-117.188;2024-02-23T11:06:54;12.70;;;5.13;;
37847;SDS011;23688;33.130;-117.188;2024-02-23T11:09:29;13.30;;;4.75;;
37847;SDS011;23688;33.130;-117.188;2024-02-23T11:11:58;14.70;;;4.53;;
37847;SDS011;23688;33.130;-117.188;2024-02-23T11:14:57;12.68;;;4.78;;
37847;SDS011;23688;33.130;-117.188;2024-02-23T11:17:17;20.20;;;4.95;;
37847;SDS011;23688;33.130;-117.188;2024-02-23T11:19:50;12.15;;;4.97;;
37847;SDS011;23688;33.130;-117.188;2024-02-23T11:22:26;15.00;;;5.30;;
37847;SDS011;23688;33.130;-117.188;2024-02-23T11:25:03;19.42;;;5.32;;
37847;SDS011;23688;33.130;-117.188;2024-02-23T11:27:36;7.75;;;3.30;;
37847;SDS011;23688;33.130;-117.188;2024-02-23T11:30:06;13.73;;;4.00;;
37847;SDS011;23688;33.130;-117.188;2024-02-23T11:32:39;6.82;;;3.25;;
37847;SDS011;23688;33.130;-117.188;2024-02-23T11:35:13;8.30;;;3.83;;
37847;SDS011;23688;33.130;-117.188;2024-02-23T11:37:54;9.68;;;3.63;;
37847;SDS011;23688;33.130;-117.188;2024-02-23T11:40:32;12.05;;;5.72;;
37847;SDS011;23688;33.130;-117.188;2024-02-23T11:42:59;14.75;;;6.03;;
37847;SDS011;23688;33.130;-117.188;2024-02-23T11:45:29;17.65;;;6.00;;
37847;SDS011;23688;33.130;-117.188;2024-02-23T11:47:56;14.88;;;6.25;;
37847;SDS011;23688;33.130;-117.188;2024-02-23T11:50:22;14.25;;;6.13;;
37847;SDS011;23688;33.130;-117.188;2024-02-23T11:52:49;16.00;;;6.05;;
37847;SDS011;23688;33.130;-117.188;2024-02-23T11:55:19;19.67;;;6.30;;
37847;SDS011;23688;33.130;-117.188;2024-02-23T11:57:47;16.40;;;6.30;;
37847;SDS011;23688;33.130;-117.188;2024-02-23T12:00:14;20.80;;;6.50;;
37847;SDS011;23688;33.130;-117.188;2024-02-23T12:02:41;21.30;;;6.32;;
37847;SDS011;23688;33.130;-117.188;2024-02-23T12:05:08;15.52;;;6.43;;
37847;SDS011;23688;33.130;-117.188;2024-02-23T12:07:34;12.52;;;5.78;;
37847;SDS011;23688;33.130;-117.188;2024-02-23T12:10:01;12.68;;;6.43;;
37847;SDS011;23688;33.130;-117.188;2024-02-23T12:12:29;14.82;;;5.72;;
37847;SDS011;23688;33.130;-117.188;2024-02-23T12:14:56;14.27;;;5.15;;
37847;SDS011;23688;33.130;-117.188;2024-02-23T12:17:24;14.75;;;6.50;;
37847;SDS011;23688;33.130;-117.188;2024-02-23T12:20:02;11.43;;;5.88;;
37847;SDS011;23688;33.130;-117.188;2024-02-23T12:22:28;12.45;;;6.55;;
37847;SDS011;23688;33.130;-117.188;2024-02-23T12:25:00;15.63;;;6.30;;
37847;SDS011;23688;33.130;-117.188;2024-02-23T12:27:27;11.70;;;5.38;;
37847;SDS011;23688;33.130;-117.188;2024-02-23T12:29:55;13.57;;;5.35;;
37847;SDS011;23688;33.130;-117.188;2024-02-23T12:32:21;15.45;;;5.35;;
37847;SDS011;23688;33.130;-117.188;2024-02-23T12:34:48;15.70;;;5.40;;
37847;SDS011;23688;33.130;-117.188;2024-02-23T12:37:18;17.05;;;5.43;;
37847;SDS011;23688;33.130;-117.188;2024-02-23T12:39:45;11.00;;;5.45;;
37847;SDS011;23688;33.130;-117.188;2024-02-23T12:42:11;14.10;;;4.97;;
37847;SDS011;23688;33.130;-117.188;2024-02-23T12:44:38;12.27;;;5.00;;
37847;SDS011;23688;33.130;-117.188;2024-02-23T12:47:04;12.93;;;5.20;;
37847;SDS011;23688;33.130;-117.188;2024-02-23T12:49:31;10.15;;;5.30;;
37847;SDS011;23688;33.130;-117.188;2024-02-23T12:51:57;21.45;;;5.95;;
37847;SDS011;23688;33.130;-117.188;2024-02-23T12:54:23;12.88;;;5.88;;
37847;SDS011;23688;33.130;-117.188;2024-02-23T12:56:50;14.30;;;5.22;;
37847;SDS011;23688;33.130;-117.188;2024-02-23T12:59:16;10.25;;;4.93;;
37847;SDS011;23688;33.130;-117.188;2024-02-23T13:01:45;11.10;;;5.45;;
37847;SDS011;23688;33.130;-117.188;2024-02-23T13:04:11;12.43;;;5.10;;
37847;SDS011;23688;33.130;-117.188;2024-02-23T13:06:39;10.02;;;3.58;;
37847;SDS011;23688;33.130;-117.188;2024-02-23T13:09:06;7.03;;;3.67;;
37847;SDS011;23688;33.130;-117.188;2024-02-23T13:11:38;8.23;;;3.47;;
37847;SDS011;23688;33.130;-117.188;2024-02-23T13:14:04;10.05;;;3.60;;
37847;SDS011;23688;33.130;-117.188;2024-02-23T13:16:31;10.88;;;3.60;;
37847;SDS011;23688;33.130;-117.188;2024-02-23T13:18:57;8.90;;;4.13;;
37847;SDS011;23688;33.130;-117.188;2024-02-23T13:21:23;8.05;;;3.40;;
37847;SDS011;23688;33.130;-117.188;2024-02-23T13:23:50;8.13;;;3.42;;
37847;SDS011;23688;33.130;-117.188;2024-02-23T13:26:16;11.00;;;3.53;;
37847;SDS011;23688;33.130;-117.188;2024-02-23T13:28:43;14.32;;;5.15;;
37847;SDS011;23688;33.130;-117.188;2024-02-23T13:31:09;9.82;;;3.90;;
37847;SDS011;23688;33.130;-117.188;2024-02-23T13:33:36;7.95;;;3.85;;
37847;SDS011;23688;33.130;-117.188;2024-02-23T13:36:02;12.05;;;3.50;;
37847;SDS011;23688;33.130;-117.188;2024-02-23T13:38:29;8.80;;;3.47;;
37847;SDS011;23688;33.130;-117.188;2024-02-23T13:40:57;10.50;;;3.55;;
37847;SDS011;23688;33.130;-117.188;2024-02-23T13:43:23;11.35;;;3.50;;
37847;SDS011;23688;33.130;-117.188;2024-02-23T13:45:51;7.28;;;3.60;;
37847;SDS011;23688;33.130;-117.188;2024-02-23T13:48:18;3.40;;;2.80;;
37847;SDS011;23688;33.130;-117.188;2024-02-23T13:50:48;5.35;;;2.97;;
37847;SDS011;23688;33.130;-117.188;2024-02-23T13:53:14;5.68;;;3.10;;
37847;SDS011;23688;33.130;-117.188;2024-02-23T13:55:41;9.38;;;3.75;;
37847;SDS011;23688;33.130;-117.188;2024-02-23T13:58:09;7.50;;;3.15;;
37847;SDS011;23688;33.130;-117.188;2024-02-23T14:00:36;4.00;;;2.90;;
37847;SDS011;23688;33.130;-117.188;2024-02-23T14:03:02;8.82;;;3.08;;
37847;SDS011;23688;33.130;-117.188;2024-02-23T14:05:29;6.82;;;2.92;;
37847;SDS011;23688;33.130;-117.188;2024-02-23T14:07:57;9.23;;;3.42;;
37847;SDS011;23688;33.130;-117.188;2024-02-23T14:10:23;8.73;;;4.07;;